Yarmouth, Canada
Current Conditions -  °F | °C
As of 7:00 PM on Saturday 25 Oct 2014 (Local Time) from CYQI Reporting Station
Broken Clouds Broken Clouds  
Wind Chill: 42°   Ceiling: 2000
Heat Index: 46°   Visibility: 15mi
Dew Point: 43°   Wind: 8mph
Humidity: 87%   Direction: 320°NW
Pressure: 29.58"   Gusts: NA
Location:  43.84°N, 66.12°W
Report Text: CYQI 252200Z 32007KT 15SM BKN020 08/06 A2958 RMK SC5 SLP018
Loading
Personal Weather Stations






























Interactive Weather Map
Tropical Storm Tracking
New forecast layout! Learn more

10-Day Weather Forecast

Advertisements
Track Severe Weather on mobile